Pagina principale
METAR-TAF:

METAR-TAF

Aeroporti :

Aeroporto di Cagliari-Elmas

Cagliari, Italia

latitudine: 39-15N, longitudine: 009-04E, altezza: 4 m

Osservazione

Il bollettino è stato emesso 30 minuti fa, alle 05:20 UTC
Vento 6 kt da nord
Temperature 4°C
Umidità 93%
Pressione 1028 hPa
Visibilità: 6000 m
Poco nuvoloso ad un'altezza di 2000 ft

METAR: LIEE 210520Z 35006KT 6000 FEW020 04/03 Q1028

Ora: 06:50 (05:50 UTC)

Previsione

Il bollettino è stato emesso 50 minuti fa, alle 05:00 UTC
Previsione valida dal 21 alle 06 UTC al 22 alle 06 UTC
Vento 6 kt da nord-ovest
Visibilità 10 km o più
Poco nuvoloso ad un'altezza di 3000 ft

TAF: LIEE 210500Z 2106/2206 31006KT 9999 FEW030

Osservazioni e previsioni meteorologiche di più di 4000 aeroporti (messaggi METAR e TAF).

Le stazioni disponibili sono rappresentate dai dischi gialli e rossi sulla carta.

Puntare il mouse per vedere il nome della stazione.

Clicca sopra per visualizzare le osservazioni e previsioni meteorologiche.

Per cambiare la mappa : fare clic sui pulsanti verdi con una croce nera per ingrandire, il pulsante verde con un trattino per diminuire, o sulla freccia verde per le mappe adiacenti.


METAR-TAF: